sensor_id;sensor_type;location;lat;lon;timestamp;pressure;altitude;pressure_sealevel;temperature;humidity
28588;BME280;15787;49.662;10.162;2024-02-23T00:02:28;96857.56;;;9.33;86.43
28588;BME280;15787;49.662;10.162;2024-02-23T00:05:03;96866.69;;;9.33;86.50
28588;BME280;15787;49.662;10.162;2024-02-23T00:07:39;96863.03;;;9.27;86.46
28588;BME280;15787;49.662;10.162;2024-02-23T00:10:12;96891.94;;;9.30;82.78
28588;BME280;15787;49.662;10.162;2024-02-23T00:12:46;96920.72;;;9.27;80.78
28588;BME280;15787;49.662;10.162;2024-02-23T00:15:20;96913.06;;;9.13;79.50
28588;BME280;15787;49.662;10.162;2024-02-23T00:17:53;96936.75;;;9.08;78.87
28588;BME280;15787;49.662;10.162;2024-02-23T00:20:27;96940.53;;;8.96;77.98
28588;BME280;15787;49.662;10.162;2024-02-23T00:23:03;96963.44;;;8.91;77.67
28588;BME280;15787;49.662;10.162;2024-02-23T00:25:37;96981.06;;;8.88;77.92
28588;BME280;15787;49.662;10.162;2024-02-23T00:28:10;96971.22;;;8.78;77.88
28588;BME280;15787;49.662;10.162;2024-02-23T00:30:44;96979.41;;;8.72;78.45
28588;BME280;15787;49.662;10.162;2024-02-23T00:33:17;97002.19;;;8.62;77.69
28588;BME280;15787;49.662;10.162;2024-02-23T00:35:50;97001.25;;;8.56;77.63
28588;BME280;15787;49.662;10.162;2024-02-23T00:38:25;96990.63;;;8.45;77.58
28588;BME280;15787;49.662;10.162;2024-02-23T00:40:59;96981.78;;;8.47;77.42
28588;BME280;15787;49.662;10.162;2024-02-23T00:43:39;96999.44;;;8.35;77.25
28588;BME280;15787;49.662;10.162;2024-02-23T00:46:14;97004.09;;;8.29;77.56
28588;BME280;15787;49.662;10.162;2024-02-23T00:48:48;96990.78;;;8.33;77.38
28588;BME280;15787;49.662;10.162;2024-02-23T00:51:21;96986.44;;;8.22;76.88
28588;BME280;15787;49.662;10.162;2024-02-23T00:53:55;96983.53;;;8.17;77.17
28588;BME280;15787;49.662;10.162;2024-02-23T00:56:28;96974.25;;;8.20;77.14
28588;BME280;15787;49.662;10.162;2024-02-23T00:59:16;96979.34;;;8.21;76.33
28588;BME280;15787;49.662;10.162;2024-02-23T01:01:49;96985.97;;;8.24;76.91
28588;BME280;15787;49.662;10.162;2024-02-23T01:04:22;97001.44;;;8.07;77.67
28588;BME280;15787;49.662;10.162;2024-02-23T01:06:55;97005.31;;;8.09;78.23
28588;BME280;15787;49.662;10.162;2024-02-23T01:09:30;97007.91;;;8.04;78.90
28588;BME280;15787;49.662;10.162;2024-02-23T01:12:03;97024.31;;;8.11;78.92
28588;BME280;15787;49.662;10.162;2024-02-23T01:14:37;97015.97;;;8.11;78.24
28588;BME280;15787;49.662;10.162;2024-02-23T01:17:10;97029.53;;;8.09;77.86
28588;BME280;15787;49.662;10.162;2024-02-23T01:19:44;97042.06;;;8.13;77.57
28588;BME280;15787;49.662;10.162;2024-02-23T01:22:17;97026.00;;;8.08;77.30
28588;BME280;15787;49.662;10.162;2024-02-23T01:24:51;97019.97;;;8.01;77.96
28588;BME280;15787;49.662;10.162;2024-02-23T01:27:26;97014.25;;;7.95;78.99
28588;BME280;15787;49.662;10.162;2024-02-23T01:29:59;97015.50;;;7.85;78.96
28588;BME280;15787;49.662;10.162;2024-02-23T01:32:33;97027.06;;;7.84;79.79
28588;BME280;15787;49.662;10.162;2024-02-23T01:35:07;97027.84;;;7.84;80.24
28588;BME280;15787;49.662;10.162;2024-02-23T01:37:41;97036.78;;;7.79;81.18
28588;BME280;15787;49.662;10.162;2024-02-23T01:40:15;97026.75;;;7.73;81.79
28588;BME280;15787;49.662;10.162;2024-02-23T01:42:49;97047.59;;;7.77;82.27
28588;BME280;15787;49.662;10.162;2024-02-23T01:45:34;97035.69;;;7.68;82.51
28588;BME280;15787;49.662;10.162;2024-02-23T01:48:07;97039.69;;;7.76;82.74
28588;BME280;15787;49.662;10.162;2024-02-23T01:50:40;97037.53;;;7.61;83.26
28588;BME280;15787;49.662;10.162;2024-02-23T01:53:15;97042.47;;;7.67;83.43
28588;BME280;15787;49.662;10.162;2024-02-23T01:55:53;97039.69;;;7.67;84.13
28588;BME280;15787;49.662;10.162;2024-02-23T01:58:27;97053.41;;;7.61;84.63
28588;BME280;15787;49.662;10.162;2024-02-23T02:01:01;97047.38;;;7.53;85.26
28588;BME280;15787;49.662;10.162;2024-02-23T02:03:35;97059.75;;;7.61;85.95
28588;BME280;15787;49.662;10.162;2024-02-23T02:06:10;97053.88;;;7.59;85.53
28588;BME280;15787;49.662;10.162;2024-02-23T02:08:45;97060.34;;;7.47;85.36
28588;BME280;15787;49.662;10.162;2024-02-23T02:11:20;97058.50;;;7.62;85.81
28588;BME280;15787;49.662;10.162;2024-02-23T02:13:54;97080.25;;;7.55;85.97
28588;BME280;15787;49.662;10.162;2024-02-23T02:16:27;97085.13;;;7.42;86.78
28588;BME280;15787;49.662;10.162;2024-02-23T02:19:00;97097.78;;;7.43;86.92
28588;BME280;15787;49.662;10.162;2024-02-23T02:21:35;97104.09;;;7.43;87.55
28588;BME280;15787;49.662;10.162;2024-02-23T02:24:09;97105.66;;;7.44;87.48
28588;BME280;15787;49.662;10.162;2024-02-23T02:26:47;97095.09;;;7.30;88.03
28588;BME280;15787;49.662;10.162;2024-02-23T02:29:22;97106.91;;;7.13;89.43
28588;BME280;15787;49.662;10.162;2024-02-23T02:31:55;97109.22;;;7.14;88.96
28588;BME280;15787;49.662;10.162;2024-02-23T02:34:31;97101.66;;;7.15;89.47
28588;BME280;15787;49.662;10.162;2024-02-23T02:37:04;97103.78;;;7.02;89.43
28588;BME280;15787;49.662;10.162;2024-02-23T02:39:37;97108.38;;;7.05;89.14
28588;BME280;15787;49.662;10.162;2024-02-23T02:42:12;97108.72;;;7.07;88.64
28588;BME280;15787;49.662;10.162;2024-02-23T02:44:45;97102.50;;;6.93;88.81
28588;BME280;15787;49.662;10.162;2024-02-23T02:47:18;97107.44;;;6.98;88.45
28588;BME280;15787;49.662;10.162;2024-02-23T02:49:51;97115.63;;;7.02;88.38
28588;BME280;15787;49.662;10.162;2024-02-23T02:52:24;97121.03;;;7.06;88.25
28588;BME280;15787;49.662;10.162;2024-02-23T02:54:58;97118.34;;;6.93;87.52
28588;BME280;15787;49.662;10.162;2024-02-23T02:57:32;97121.31;;;6.98;86.83
28588;BME280;15787;49.662;10.162;2024-02-23T03:00:10;97138.41;;;6.97;87.26
28588;BME280;15787;49.662;10.162;2024-02-23T03:02:44;97135.63;;;6.97;87.38
28588;BME280;15787;49.662;10.162;2024-02-23T03:05:16;97131.59;;;6.89;87.82
28588;BME280;15787;49.662;10.162;2024-02-23T03:07:50;97135.84;;;6.81;87.35
28588;BME280;15787;49.662;10.162;2024-02-23T03:10:26;97132.53;;;6.95;87.47
28588;BME280;15787;49.662;10.162;2024-02-23T03:13:00;97131.72;;;6.85;87.76
28588;BME280;15787;49.662;10.162;2024-02-23T03:15:34;97148.75;;;6.75;87.63
28588;BME280;15787;49.662;10.162;2024-02-23T03:18:06;97151.44;;;6.87;87.04
28588;BME280;15787;49.662;10.162;2024-02-23T03:20:41;97147.06;;;6.77;87.40
28588;BME280;15787;49.662;10.162;2024-02-23T03:23:14;97147.13;;;6.86;88.33
28588;BME280;15787;49.662;10.162;2024-02-23T03:25:48;97144.88;;;6.94;87.99
28588;BME280;15787;49.662;10.162;2024-02-23T03:28:22;97143.13;;;6.87;87.03
28588;BME280;15787;49.662;10.162;2024-02-23T03:30:55;97150.03;;;6.83;86.58
28588;BME280;15787;49.662;10.162;2024-02-23T03:33:28;97164.09;;;6.88;85.96
28588;BME280;15787;49.662;10.162;2024-02-23T03:36:03;97165.97;;;6.91;86.04
28588;BME280;15787;49.662;10.162;2024-02-23T03:38:36;97179.66;;;6.86;85.70
28588;BME280;15787;49.662;10.162;2024-02-23T03:41:09;97180.88;;;6.85;86.25
28588;BME280;15787;49.662;10.162;2024-02-23T03:43:43;97194.00;;;6.72;87.11
28588;BME280;15787;49.662;10.162;2024-02-23T03:46:17;97212.78;;;6.68;88.28
28588;BME280;15787;49.662;10.162;2024-02-23T03:48:51;97226.59;;;6.46;91.07
28588;BME280;15787;49.662;10.162;2024-02-23T03:51:25;97207.25;;;6.21;93.92
28588;BME280;15787;49.662;10.162;2024-02-23T03:53:58;97216.16;;;6.03;96.68
28588;BME280;15787;49.662;10.162;2024-02-23T03:56:37;97219.06;;;5.87;99.29
28588;BME280;15787;49.662;10.162;2024-02-23T03:59:12;97214.47;;;5.81;100.00
28588;BME280;15787;49.662;10.162;2024-02-23T04:01:46;97207.19;;;5.74;100.00
28588;BME280;15787;49.662;10.162;2024-02-23T04:04:19;97204.19;;;5.81;100.00
28588;BME280;15787;49.662;10.162;2024-02-23T04:06:52;97212.75;;;5.87;100.00
28588;BME280;15787;49.662;10.162;2024-02-23T04:09:25;97219.13;;;5.84;100.00
28588;BME280;15787;49.662;10.162;2024-02-23T04:11:59;97222.47;;;5.79;100.00
28588;BME280;15787;49.662;10.162;2024-02-23T04:14:34;97211.59;;;5.84;100.00
28588;BME280;15787;49.662;10.162;2024-02-23T04:17:08;97183.72;;;5.91;100.00
28588;BME280;15787;49.662;10.162;2024-02-23T04:19:43;97196.31;;;5.80;100.00
28588;BME280;15787;49.662;10.162;2024-02-23T04:22:16;97223.69;;;5.90;100.00
28588;BME280;15787;49.662;10.162;2024-02-23T04:24:50;97229.44;;;5.96;100.00
28588;BME280;15787;49.662;10.162;2024-02-23T04:27:23;97236.94;;;5.83;100.00
28588;BME280;15787;49.662;10.162;2024-02-23T04:29:57;97250.63;;;6.02;100.00
28588;BME280;15787;49.662;10.162;2024-02-23T04:32:30;97244.06;;;6.09;100.00
28588;BME280;15787;49.662;10.162;2024-02-23T04:35:04;97260.34;;;5.82;100.00
28588;BME280;15787;49.662;10.162;2024-02-23T04:37:38;97252.50;;;5.93;100.00
28588;BME280;15787;49.662;10.162;2024-02-23T04:40:11;97242.88;;;5.97;99.83
28588;BME280;15787;49.662;10.162;2024-02-23T04:42:45;97237.66;;;6.12;99.78
28588;BME280;15787;49.662;10.162;2024-02-23T04:45:20;97234.09;;;6.11;98.86
28588;BME280;15787;49.662;10.162;2024-02-23T04:47:53;97252.84;;;5.95;99.03
28588;BME280;15787;49.662;10.162;2024-02-23T04:50:26;97265.03;;;5.97;99.45
28588;BME280;15787;49.662;10.162;2024-02-23T04:53:00;97268.00;;;6.03;99.26
28588;BME280;15787;49.662;10.162;2024-02-23T04:55:33;97267.56;;;6.29;98.23
28588;BME280;15787;49.662;10.162;2024-02-23T04:58:06;97255.81;;;6.13;98.77
28588;BME280;15787;49.662;10.162;2024-02-23T05:00:41;97263.38;;;5.87;98.69
28588;BME280;15787;49.662;10.162;2024-02-23T05:03:14;97274.22;;;5.94;99.46
28588;BME280;15787;49.662;10.162;2024-02-23T05:05:48;97253.59;;;6.33;98.52
28588;BME280;15787;49.662;10.162;2024-02-23T05:08:31;97247.78;;;6.53;97.21
28588;BME280;15787;49.662;10.162;2024-02-23T05:11:04;97256.78;;;6.31;97.25
28588;BME280;15787;49.662;10.162;2024-02-23T05:13:37;97244.69;;;6.51;96.80
28588;BME280;15787;49.662;10.162;2024-02-23T05:16:15;97240.94;;;6.32;95.93
28588;BME280;15787;49.662;10.162;2024-02-23T05:18:48;97255.56;;;6.45;96.17
28588;BME280;15787;49.662;10.162;2024-02-23T05:21:22;97275.72;;;6.58;95.65
28588;BME280;15787;49.662;10.162;2024-02-23T05:23:55;97270.69;;;6.06;95.13
28588;BME280;15787;49.662;10.162;2024-02-23T05:26:28;97269.78;;;6.09;95.99
28588;BME280;15787;49.662;10.162;2024-02-23T05:29:02;97255.44;;;6.36;95.07
28588;BME280;15787;49.662;10.162;2024-02-23T05:31:54;97263.31;;;6.50;94.66
28588;BME280;15787;49.662;10.162;2024-02-23T05:34:28;97250.25;;;6.72;94.14
28588;BME280;15787;49.662;10.162;2024-02-23T05:37:02;97259.94;;;6.68;94.43
28588;BME280;15787;49.662;10.162;2024-02-23T05:39:34;97268.75;;;6.41;93.76
28588;BME280;15787;49.662;10.162;2024-02-23T05:42:09;97265.44;;;6.33;93.95
28588;BME280;15787;49.662;10.162;2024-02-23T05:44:43;97263.75;;;6.36;92.97
28588;BME280;15787;49.662;10.162;2024-02-23T05:47:18;97266.44;;;6.27;93.48
28588;BME280;15787;49.662;10.162;2024-02-23T05:49:53;97254.22;;;6.50;93.83
28588;BME280;15787;49.662;10.162;2024-02-23T05:52:26;97267.09;;;6.31;95.39
28588;BME280;15787;49.662;10.162;2024-02-23T05:54:59;97262.00;;;6.42;95.55
28588;BME280;15787;49.662;10.162;2024-02-23T05:57:27;97253.75;;;6.51;94.95
28588;BME280;15787;49.662;10.162;2024-02-23T06:00:01;97259.75;;;6.50;93.47
28588;BME280;15787;49.662;10.162;2024-02-23T06:02:43;97280.84;;;6.34;92.73
28588;BME280;15787;49.662;10.162;2024-02-23T06:05:16;97279.88;;;6.03;91.83
28588;BME280;15787;49.662;10.162;2024-02-23T06:07:49;97286.16;;;6.42;91.77
28588;BME280;15787;49.662;10.162;2024-02-23T06:10:22;97286.16;;;6.29;90.82
28588;BME280;15787;49.662;10.162;2024-02-23T06:13:11;97279.97;;;6.25;89.48
28588;BME280;15787;49.662;10.162;2024-02-23T06:15:44;97283.66;;;6.09;88.88
28588;BME280;15787;49.662;10.162;2024-02-23T06:18:19;97281.75;;;6.06;89.22
28588;BME280;15787;49.662;10.162;2024-02-23T06:20:53;97283.75;;;6.06;88.43
28588;BME280;15787;49.662;10.162;2024-02-23T06:23:26;97282.31;;;5.89;87.39
28588;BME280;15787;49.662;10.162;2024-02-23T06:26:01;97300.25;;;5.97;87.65
28588;BME280;15787;49.662;10.162;2024-02-23T06:28:35;97306.19;;;5.83;86.18
28588;BME280;15787;49.662;10.162;2024-02-23T06:31:10;97295.69;;;5.90;87.22
28588;BME280;15787;49.662;10.162;2024-02-23T06:33:45;97315.72;;;5.69;86.64
28588;BME280;15787;49.662;10.162;2024-02-23T06:36:21;97327.91;;;5.71;86.83
28588;BME280;15787;49.662;10.162;2024-02-23T06:38:54;97349.06;;;5.78;87.11
28588;BME280;15787;49.662;10.162;2024-02-23T06:41:27;97342.19;;;5.83;86.98
28588;BME280;15787;49.662;10.162;2024-02-23T06:44:00;97346.63;;;5.80;86.64
28588;BME280;15787;49.662;10.162;2024-02-23T06:46:33;97344.63;;;5.81;85.62
28588;BME280;15787;49.662;10.162;2024-02-23T06:49:08;97358.06;;;5.82;85.73
28588;BME280;15787;49.662;10.162;2024-02-23T06:51:41;97357.81;;;5.77;86.07
28588;BME280;15787;49.662;10.162;2024-02-23T06:54:14;97355.59;;;5.71;86.29
28588;BME280;15787;49.662;10.162;2024-02-23T06:56:49;97361.47;;;5.73;86.29
28588;BME280;15787;49.662;10.162;2024-02-23T06:59:22;97354.13;;;5.67;86.66
28588;BME280;15787;49.662;10.162;2024-02-23T07:01:58;97350.47;;;5.70;87.71
28588;BME280;15787;49.662;10.162;2024-02-23T07:04:32;97352.38;;;5.73;87.28
28588;BME280;15787;49.662;10.162;2024-02-23T07:07:07;97349.19;;;5.74;87.78
28588;BME280;15787;49.662;10.162;2024-02-23T07:09:40;97350.94;;;5.68;87.81
28588;BME280;15787;49.662;10.162;2024-02-23T07:12:13;97353.72;;;5.81;87.44
28588;BME280;15787;49.662;10.162;2024-02-23T07:14:46;97348.81;;;5.72;87.16
28588;BME280;15787;49.662;10.162;2024-02-23T07:17:19;97344.59;;;5.97;86.97
28588;BME280;15787;49.662;10.162;2024-02-23T07:19:54;97344.81;;;5.90;87.45
28588;BME280;15787;49.662;10.162;2024-02-23T07:22:42;97342.25;;;5.95;87.31
28588;BME280;15787;49.662;10.162;2024-02-23T07:25:32;97347.59;;;6.02;87.65
28588;BME280;15787;49.662;10.162;2024-02-23T07:28:05;97345.69;;;5.87;87.83
28588;BME280;15787;49.662;10.162;2024-02-23T07:30:38;97342.25;;;6.08;87.44
28588;BME280;15787;49.662;10.162;2024-02-23T07:33:11;97337.59;;;5.92;87.21
28588;BME280;15787;49.662;10.162;2024-02-23T07:35:46;97346.53;;;5.84;86.48
28588;BME280;15787;49.662;10.162;2024-02-23T07:38:19;97350.69;;;6.17;85.67
28588;BME280;15787;49.662;10.162;2024-02-23T07:40:52;97347.78;;;5.95;85.04
28588;BME280;15787;49.662;10.162;2024-02-23T07:43:51;97356.63;;;5.90;84.04
28588;BME280;15787;49.662;10.162;2024-02-23T07:46:24;97360.88;;;5.95;83.27
28588;BME280;15787;49.662;10.162;2024-02-23T07:49:00;97360.31;;;5.87;82.38
28588;BME280;15787;49.662;10.162;2024-02-23T07:51:41;97364.75;;;5.97;83.02
28588;BME280;15787;49.662;10.162;2024-02-23T07:54:31;97359.59;;;5.83;81.79
28588;BME280;15787;49.662;10.162;2024-02-23T07:57:04;97364.53;;;5.92;82.84
28588;BME280;15787;49.662;10.162;2024-02-23T07:59:38;97376.19;;;6.12;83.40
28588;BME280;15787;49.662;10.162;2024-02-23T08:02:11;97368.66;;;6.12;82.82
28588;BME280;15787;49.662;10.162;2024-02-23T08:04:44;97375.94;;;6.06;82.98
28588;BME280;15787;49.662;10.162;2024-02-23T08:07:20;97377.31;;;6.27;83.06
28588;BME280;15787;49.662;10.162;2024-02-23T08:09:54;97377.28;;;6.14;82.64
28588;BME280;15787;49.662;10.162;2024-02-23T08:12:27;97383.59;;;6.02;81.73
28588;BME280;15787;49.662;10.162;2024-02-23T08:15:01;97388.81;;;6.13;81.60
28588;BME280;15787;49.662;10.162;2024-02-23T08:17:34;97390.38;;;6.26;81.30
28588;BME280;15787;49.662;10.162;2024-02-23T08:20:08;97391.47;;;6.16;80.93
28588;BME280;15787;49.662;10.162;2024-02-23T08:22:42;97385.63;;;6.27;80.06
28588;BME280;15787;49.662;10.162;2024-02-23T08:25:15;97395.38;;;6.31;79.16
28588;BME280;15787;49.662;10.162;2024-02-23T08:27:48;97390.94;;;6.47;80.07
28588;BME280;15787;49.662;10.162;2024-02-23T08:30:22;97378.97;;;6.62;79.78
28588;BME280;15787;49.662;10.162;2024-02-23T08:32:55;97387.28;;;6.50;78.47
28588;BME280;15787;49.662;10.162;2024-02-23T08:35:29;97391.81;;;6.44;79.02
28588;BME280;15787;49.662;10.162;2024-02-23T08:38:04;97378.06;;;6.78;78.55
28588;BME280;15787;49.662;10.162;2024-02-23T08:40:37;97388.06;;;6.38;79.00
28588;BME280;15787;49.662;10.162;2024-02-23T08:43:11;97391.63;;;6.38;78.16
28588;BME280;15787;49.662;10.162;2024-02-23T08:45:45;97401.38;;;6.43;78.54
28588;BME280;15787;49.662;10.162;2024-02-23T08:48:18;97409.69;;;6.68;78.82
28588;BME280;15787;49.662;10.162;2024-02-23T08:50:51;97399.59;;;6.36;76.81
28588;BME280;15787;49.662;10.162;2024-02-23T08:53:25;97392.72;;;6.53;76.94
28588;BME280;15787;49.662;10.162;2024-02-23T08:55:58;97399.16;;;6.63;77.13
28588;BME280;15787;49.662;10.162;2024-02-23T08:58:32;97420.56;;;6.50;77.28
28588;BME280;15787;49.662;10.162;2024-02-23T09:01:05;97408.69;;;6.62;76.72
28588;BME280;15787;49.662;10.162;2024-02-23T09:03:38;97409.13;;;6.48;75.51
28588;BME280;15787;49.662;10.162;2024-02-23T09:06:11;97415.47;;;6.61;75.20
28588;BME280;15787;49.662;10.162;2024-02-23T09:08:46;97407.47;;;6.63;74.43
28588;BME280;15787;49.662;10.162;2024-02-23T09:11:19;97400.69;;;6.64;74.61
28588;BME280;15787;49.662;10.162;2024-02-23T09:13:53;97422.53;;;6.49;74.09
28588;BME280;15787;49.662;10.162;2024-02-23T09:16:26;97425.44;;;6.46;73.12
28588;BME280;15787;49.662;10.162;2024-02-23T09:18:59;97415.13;;;6.59;73.83
28588;BME280;15787;49.662;10.162;2024-02-23T09:21:32;97429.88;;;6.56;72.99
28588;BME280;15787;49.662;10.162;2024-02-23T09:24:07;97413.13;;;6.59;73.09
28588;BME280;15787;49.662;10.162;2024-02-23T09:26:40;97417.00;;;6.62;72.13
28588;BME280;15787;49.662;10.162;2024-02-23T09:29:14;97414.13;;;6.65;72.72
28588;BME280;15787;49.662;10.162;2024-02-23T09:31:47;97423.97;;;6.66;72.83
28588;BME280;15787;49.662;10.162;2024-02-23T09:34:20;97412.13;;;6.66;72.00
28588;BME280;15787;49.662;10.162;2024-02-23T09:36:53;97416.97;;;6.87;72.79
28588;BME280;15787;49.662;10.162;2024-02-23T09:39:28;97409.75;;;6.89;72.92
28588;BME280;15787;49.662;10.162;2024-02-23T09:42:04;97405.09;;;7.12;73.28
28588;BME280;15787;49.662;10.162;2024-02-23T09:44:44;97409.69;;;7.27;73.86
28588;BME280;15787;49.662;10.162;2024-02-23T09:47:18;97409.84;;;7.11;72.44
28588;BME280;15787;49.662;10.162;2024-02-23T09:49:52;97417.28;;;7.14;72.71
28588;BME280;15787;49.662;10.162;2024-02-23T09:52:26;97419.72;;;7.12;71.63
28588;BME280;15787;49.662;10.162;2024-02-23T09:55:02;97422.19;;;6.97;70.65
28588;BME280;15787;49.662;10.162;2024-02-23T09:57:36;97428.19;;;6.96;70.66
28588;BME280;15787;49.662;10.162;2024-02-23T10:00:11;97433.28;;;6.97;70.13
28588;BME280;15787;49.662;10.162;2024-02-23T10:02:44;97430.09;;;6.99;70.49
28588;BME280;15787;49.662;10.162;2024-02-23T10:05:17;97433.41;;;7.07;70.20
28588;BME280;15787;49.662;10.162;2024-02-23T10:07:52;97440.41;;;7.45;71.74
28588;BME280;15787;49.662;10.162;2024-02-23T10:10:32;97449.34;;;7.15;70.22
28588;BME280;15787;49.662;10.162;2024-02-23T10:13:06;97452.78;;;7.32;70.85
28588;BME280;15787;49.662;10.162;2024-02-23T10:15:39;97451.19;;;7.43;70.25
28588;BME280;15787;49.662;10.162;2024-02-23T10:18:32;97458.13;;;7.26;68.82
28588;BME280;15787;49.662;10.162;2024-02-23T10:21:06;97467.44;;;7.20;69.80
28588;BME280;15787;49.662;10.162;2024-02-23T10:23:39;97464.69;;;7.07;69.22
28588;BME280;15787;49.662;10.162;2024-02-23T10:26:14;97463.50;;;7.42;70.64
28588;BME280;15787;49.662;10.162;2024-02-23T10:28:52;97465.81;;;7.56;69.18
28588;BME280;15787;49.662;10.162;2024-02-23T10:31:27;97460.56;;;7.58;68.03
28588;BME280;15787;49.662;10.162;2024-02-23T10:34:02;97469.38;;;7.57;69.10
28588;BME280;15787;49.662;10.162;2024-02-23T10:36:41;97463.59;;;7.51;69.07
28588;BME280;15787;49.662;10.162;2024-02-23T10:39:18;97459.09;;;7.32;68.19
28588;BME280;15787;49.662;10.162;2024-02-23T10:41:57;97465.31;;;7.36;68.62
28588;BME280;15787;49.662;10.162;2024-02-23T10:44:31;97462.66;;;7.33;67.70
28588;BME280;15787;49.662;10.162;2024-02-23T10:47:05;97460.31;;;7.31;68.25
28588;BME280;15787;49.662;10.162;2024-02-23T10:49:38;97460.66;;;7.68;69.13
28588;BME280;15787;49.662;10.162;2024-02-23T10:52:12;97467.53;;;7.41;67.92
28588;BME280;15787;49.662;10.162;2024-02-23T10:54:47;97465.56;;;7.63;67.77
28588;BME280;15787;49.662;10.162;2024-02-23T10:57:23;97477.56;;;7.60;68.17
28588;BME280;15787;49.662;10.162;2024-02-23T10:59:56;97468.22;;;7.89;69.27
28588;BME280;15787;49.662;10.162;2024-02-23T11:02:31;97465.66;;;7.94;68.70
28588;BME280;15787;49.662;10.162;2024-02-23T11:05:08;97457.31;;;7.73;67.42
28588;BME280;15787;49.662;10.162;2024-02-23T11:07:46;97470.94;;;7.45;65.85
28588;BME280;15787;49.662;10.162;2024-02-23T11:10:24;97459.91;;;7.89;66.96
28588;BME280;15787;49.662;10.162;2024-02-23T11:13:02;97471.84;;;7.42;66.57
28588;BME280;15787;49.662;10.162;2024-02-23T11:15:41;97452.97;;;7.72;67.37
28588;BME280;15787;49.662;10.162;2024-02-23T11:18:21;97441.34;;;7.64;67.16
28588;BME280;15787;49.662;10.162;2024-02-23T11:20:59;97455.47;;;7.57;66.40
28588;BME280;15787;49.662;10.162;2024-02-23T11:23:40;97454.38;;;7.54;66.84
28588;BME280;15787;49.662;10.162;2024-02-23T11:26:14;97456.00;;;7.64;68.72
28588;BME280;15787;49.662;10.162;2024-02-23T11:28:50;97446.84;;;7.77;68.66
28588;BME280;15787;49.662;10.162;2024-02-23T11:31:29;97447.00;;;7.60;67.84
28588;BME280;15787;49.662;10.162;2024-02-23T11:34:08;97444.00;;;7.68;68.87
28588;BME280;15787;49.662;10.162;2024-02-23T11:36:41;97440.03;;;7.56;68.54
28588;BME280;15787;49.662;10.162;2024-02-23T11:39:14;97439.28;;;7.77;69.45
28588;BME280;15787;49.662;10.162;2024-02-23T11:41:48;97442.50;;;7.54;68.09
28588;BME280;15787;49.662;10.162;2024-02-23T11:44:22;97440.75;;;7.47;68.73
28588;BME280;15787;49.662;10.162;2024-02-23T11:46:58;97424.41;;;7.71;68.94
28588;BME280;15787;49.662;10.162;2024-02-23T11:49:31;97428.22;;;7.86;69.03
28588;BME280;15787;49.662;10.162;2024-02-23T11:52:05;97427.91;;;7.84;69.75
28588;BME280;15787;49.662;10.162;2024-02-23T11:54:38;97430.03;;;7.58;69.53
28588;BME280;15787;49.662;10.162;2024-02-23T11:57:11;97432.75;;;7.71;71.41
28588;BME280;15787;49.662;10.162;2024-02-23T11:59:47;97428.69;;;7.29;70.25
28588;BME280;15787;49.662;10.162;2024-02-23T12:02:21;97417.78;;;7.34;70.79
28588;BME280;15787;49.662;10.162;2024-02-23T12:04:54;97401.78;;;7.38;71.58
28588;BME280;15787;49.662;10.162;2024-02-23T12:07:28;97404.59;;;7.60;71.32
28588;BME280;15787;49.662;10.162;2024-02-23T12:10:02;97406.34;;;7.67;70.49
28588;BME280;15787;49.662;10.162;2024-02-23T12:12:53;97407.94;;;7.77;69.91
28588;BME280;15787;49.662;10.162;2024-02-23T12:15:40;97407.75;;;7.71;70.47
28588;BME280;15787;49.662;10.162;2024-02-23T12:18:13;97418.13;;;7.58;71.28
28588;BME280;15787;49.662;10.162;2024-02-23T12:20:47;97419.31;;;7.35;71.45
28588;BME280;15787;49.662;10.162;2024-02-23T12:23:20;97398.31;;;7.47;71.21
28588;BME280;15787;49.662;10.162;2024-02-23T12:25:54;97388.88;;;7.44;72.18
28588;BME280;15787;49.662;10.162;2024-02-23T12:28:27;97396.69;;;7.37;71.59
28588;BME280;15787;49.662;10.162;2024-02-23T12:31:03;97402.66;;;7.35;71.74
28588;BME280;15787;49.662;10.162;2024-02-23T12:33:40;97398.75;;;7.45;72.25
28588;BME280;15787;49.662;10.162;2024-02-23T12:36:13;97402.56;;;7.39;72.14
28588;BME280;15787;49.662;10.162;2024-02-23T12:38:47;97394.28;;;7.48;72.25
28588;BME280;15787;49.662;10.162;2024-02-23T12:41:20;97393.97;;;7.46;70.68
28588;BME280;15787;49.662;10.162;2024-02-23T12:43:53;97381.97;;;7.49;69.64
28588;BME280;15787;49.662;10.162;2024-02-23T12:46:27;97379.44;;;7.63;68.30
28588;BME280;15787;49.662;10.162;2024-02-23T12:49:00;97381.72;;;7.78;69.33
28588;BME280;15787;49.662;10.162;2024-02-23T12:51:33;97381.34;;;7.67;68.77
28588;BME280;15787;49.662;10.162;2024-02-23T12:54:07;97376.69;;;7.63;68.58
28588;BME280;15787;49.662;10.162;2024-02-23T12:56:40;97391.91;;;7.81;68.92
28588;BME280;15787;49.662;10.162;2024-02-23T12:59:13;97383.31;;;7.66;69.37
28588;BME280;15787;49.662;10.162;2024-02-23T13:01:47;97381.22;;;7.70;69.64
28588;BME280;15787;49.662;10.162;2024-02-23T13:04:23;97380.38;;;7.82;70.11
28588;BME280;15787;49.662;10.162;2024-02-23T13:06:56;97393.88;;;7.93;70.64
28588;BME280;15787;49.662;10.162;2024-02-23T13:09:30;97390.69;;;7.82;69.47
28588;BME280;15787;49.662;10.162;2024-02-23T13:12:04;97384.69;;;8.05;70.11
28588;BME280;15787;49.662;10.162;2024-02-23T13:14:37;97384.38;;;8.03;69.59
28588;BME280;15787;49.662;10.162;2024-02-23T13:17:12;97379.75;;;8.09;69.32
28588;BME280;15787;49.662;10.162;2024-02-23T13:19:45;97372.88;;;8.22;70.47
28588;BME280;15787;49.662;10.162;2024-02-23T13:22:36;97375.53;;;8.26;69.83
28588;BME280;15787;49.662;10.162;2024-02-23T13:25:09;97379.34;;;8.19;68.80
28588;BME280;15787;49.662;10.162;2024-02-23T13:27:42;97387.66;;;8.10;69.96
28588;BME280;15787;49.662;10.162;2024-02-23T13:30:15;97388.56;;;8.07;70.08
28588;BME280;15787;49.662;10.162;2024-02-23T13:32:49;97380.72;;;8.15;69.17
28588;BME280;15787;49.662;10.162;2024-02-23T13:35:23;97391.34;;;8.07;68.20
28588;BME280;15787;49.662;10.162;2024-02-23T13:37:56;97388.25;;;8.05;67.99
28588;BME280;15787;49.662;10.162;2024-02-23T13:40:30;97386.31;;;8.24;67.88